createdAt,value
2022-10-14T00:01:34.027Z,27.97
2022-10-14T00:04:02.579Z,29.33
2022-10-14T00:06:35.775Z,25.30
2022-10-14T00:09:06.442Z,27.63
2022-10-14T00:11:38.342Z,26.60
2022-10-14T00:14:09.720Z,26.53
2022-10-14T00:16:41.839Z,27.23
2022-10-14T00:19:11.595Z,26.73
2022-10-14T00:21:41.829Z,29.27
2022-10-14T00:24:12.983Z,28.00
2022-10-14T00:26:44.774Z,26.57
2022-10-14T00:29:15.112Z,26.80
2022-10-14T00:31:43.796Z,27.60
2022-10-14T00:34:17.287Z,28.03
2022-10-14T00:36:48.185Z,24.80
2022-10-14T00:39:20.609Z,26.70
2022-10-14T00:41:50.579Z,28.50
2022-10-14T00:45:00.899Z,27.17
2022-10-14T00:47:29.980Z,25.77
2022-10-14T00:49:58.811Z,28.47
2022-10-14T00:52:31.253Z,25.67
2022-10-14T00:55:02.653Z,30.20
2022-10-14T00:57:33.057Z,28.07
2022-10-14T01:00:09.705Z,28.00
2022-10-14T01:02:39.655Z,26.67
2022-10-14T01:05:08.893Z,24.80
2022-10-14T01:07:55.787Z,29.17
2022-10-14T01:10:31.466Z,27.00
2022-10-14T01:13:18.968Z,26.37
2022-10-14T01:15:56.997Z,28.33
2022-10-14T01:18:39.745Z,27.27
2022-10-14T01:21:19.197Z,26.80
2022-10-14T01:24:31.442Z,27.40
2022-10-14T01:27:11.294Z,26.40
2022-10-14T01:30:09.202Z,25.90
2022-10-14T01:32:43.992Z,27.00
2022-10-14T01:35:18.640Z,26.10
2022-10-14T01:37:52.603Z,28.60
2022-10-14T01:40:28.234Z,26.80
2022-10-14T01:42:58.896Z,28.17
2022-10-14T01:45:33.070Z,27.60
2022-10-14T01:48:02.323Z,28.63
2022-10-14T01:50:32.928Z,27.03
2022-10-14T01:53:07.129Z,28.30
2022-10-14T01:55:38.799Z,26.57
2022-10-14T01:58:08.134Z,25.57
2022-10-14T02:00:39.525Z,29.37
2022-10-14T02:03:08.809Z,29.43
2022-10-14T02:05:39.503Z,27.97
2022-10-14T02:08:12.870Z,28.10
2022-10-14T02:10:55.165Z,29.90
2022-10-14T02:13:33.413Z,28.53
2022-10-14T02:16:10.224Z,28.40
2022-10-14T02:18:42.545Z,27.60
2022-10-14T02:21:19.325Z,26.90
2022-10-14T02:24:11.274Z,26.00
2022-10-14T02:26:41.113Z,30.30
2022-10-14T02:29:09.746Z,30.67
2022-10-14T02:31:41.813Z,28.37
2022-10-14T02:34:14.475Z,26.70
2022-10-14T02:36:43.609Z,26.47
2022-10-14T02:39:14.620Z,25.50
2022-10-14T02:41:43.110Z,25.43
2022-10-14T02:44:11.586Z,24.40
2022-10-14T02:46:46.586Z,26.83
2022-10-14T02:49:15.421Z,26.40
2022-10-14T02:51:47.675Z,25.60
2022-10-14T02:54:16.103Z,28.57
2022-10-14T02:56:44.412Z,28.77
2022-10-14T02:59:12.780Z,27.77
2022-10-14T03:01:42.650Z,28.60
2022-10-14T03:04:12.255Z,27.00
2022-10-14T03:06:41.202Z,25.10
2022-10-14T03:09:10.067Z,28.30
2022-10-14T03:11:41.608Z,25.97
2022-10-14T03:14:15.084Z,25.87
2022-10-14T03:16:45.684Z,27.33
2022-10-14T03:19:20.415Z,27.33
2022-10-14T03:21:51.720Z,27.37
2022-10-14T03:24:22.189Z,27.90
2022-10-14T03:27:03.004Z,26.80
2022-10-14T03:29:31.552Z,25.23
2022-10-14T03:32:13.844Z,27.80
2022-10-14T03:35:00.435Z,26.30
2022-10-14T03:37:28.869Z,26.43
2022-10-14T03:39:59.350Z,25.37
2022-10-14T03:42:31.207Z,26.10
2022-10-14T03:44:59.561Z,24.47
2022-10-14T03:47:31.478Z,25.87
2022-10-14T03:50:03.093Z,24.10
2022-10-14T03:52:55.769Z,24.43
2022-10-14T03:55:31.184Z,25.10
2022-10-14T03:57:59.919Z,24.87
2022-10-14T04:00:29.164Z,22.83
2022-10-14T04:03:12.986Z,23.37
2022-10-14T04:05:46.793Z,24.13
2022-10-14T04:08:23.342Z,25.30
2022-10-14T04:10:57.973Z,21.90
2022-10-14T04:13:29.441Z,24.23
2022-10-14T04:15:58.416Z,24.07
2022-10-14T04:18:34.974Z,24.97
2022-10-14T04:21:07.409Z,23.17
2022-10-14T04:23:37.310Z,23.40
2022-10-14T04:26:14.043Z,25.97
2022-10-14T04:28:45.483Z,25.30
2022-10-14T04:31:32.272Z,26.70
2022-10-14T04:34:07.228Z,25.23
2022-10-14T04:36:42.417Z,25.97
2022-10-14T04:39:26.959Z,26.23
2022-10-14T04:41:59.991Z,24.83
2022-10-14T04:44:29.752Z,22.13
2022-10-14T04:47:01.295Z,24.67
2022-10-14T04:49:35.440Z,23.70
2022-10-14T04:52:12.732Z,23.40
2022-10-14T04:54:50.344Z,24.50
2022-10-14T04:57:27.888Z,22.73
2022-10-14T04:59:58.758Z,23.37
2022-10-14T05:02:49.174Z,22.50
2022-10-14T05:05:21.886Z,24.23
2022-10-14T05:07:56.322Z,23.30
2022-10-14T05:10:38.868Z,21.97
2022-10-14T05:13:13.587Z,22.60
2022-10-14T05:15:54.596Z,23.97
2022-10-14T05:18:26.388Z,25.20
2022-10-14T05:21:02.391Z,24.97
2022-10-14T05:23:45.530Z,25.80
2022-10-14T05:26:13.990Z,25.33
2022-10-14T05:28:43.758Z,24.80
2022-10-14T05:31:12.363Z,27.30
2022-10-14T05:33:50.040Z,26.67
2022-10-14T05:36:20.218Z,26.67
2022-10-14T05:38:50.935Z,25.47
2022-10-14T05:41:23.242Z,25.07
2022-10-14T05:43:51.968Z,24.73
2022-10-14T05:46:20.747Z,24.63
2022-10-14T05:48:55.421Z,23.37
2022-10-14T05:51:29.511Z,25.03
2022-10-14T05:54:06.638Z,25.97
2022-10-14T05:56:38.681Z,25.47
2022-10-14T05:59:07.466Z,24.83
2022-10-14T06:01:37.172Z,24.87
2022-10-14T06:04:11.347Z,26.40
2022-10-14T06:06:42.346Z,25.30
2022-10-14T06:09:11.611Z,26.00
2022-10-14T06:11:40.714Z,26.67
2022-10-14T06:14:10.433Z,26.30
2022-10-14T06:16:41.986Z,27.20
2022-10-14T06:19:16.065Z,26.17
2022-10-14T06:21:52.460Z,25.73
2022-10-14T06:24:21.067Z,25.67
2022-10-14T06:26:49.755Z,25.20
2022-10-14T06:29:18.778Z,26.57
2022-10-14T06:31:49.307Z,24.90
2022-10-14T06:34:18.422Z,26.63
2022-10-14T06:36:48.563Z,28.03
2022-10-14T06:39:17.224Z,25.80
2022-10-14T06:41:48.136Z,27.50
2022-10-14T06:44:21.047Z,27.30
2022-10-14T06:46:49.652Z,27.60
2022-10-14T06:49:18.284Z,26.73
2022-10-14T06:51:56.294Z,26.67
2022-10-14T06:54:25.134Z,30.97
2022-10-14T06:56:56.353Z,31.53
2022-10-14T06:59:29.883Z,33.77
2022-10-14T07:02:00.913Z,33.90
2022-10-14T07:04:49.923Z,35.40
2022-10-14T07:07:27.865Z,31.83
2022-10-14T07:10:00.039Z,31.30
2022-10-14T07:12:30.711Z,32.07
2022-10-14T07:15:04.523Z,34.53
2022-10-14T07:17:38.229Z,30.87
2022-10-14T07:20:15.963Z,33.57
2022-10-14T07:22:47.620Z,34.80
2022-10-14T07:25:16.301Z,29.90
2022-10-14T07:27:47.572Z,33.43
2022-10-14T07:30:17.591Z,33.60
2022-10-14T07:32:49.548Z,34.27
2022-10-14T07:35:22.242Z,35.40
2022-10-14T07:37:52.574Z,36.90
2022-10-14T07:40:21.350Z,40.17
2022-10-14T07:42:49.937Z,38.60
2022-10-14T07:45:20.961Z,40.70
2022-10-14T07:47:50.763Z,38.17
2022-10-14T07:50:19.541Z,43.50
2022-10-14T07:53:01.236Z,44.97
2022-10-14T07:55:54.831Z,43.87
2022-10-14T07:58:30.121Z,37.07
2022-10-14T08:01:01.430Z,33.80
2022-10-14T08:03:36.924Z,31.23
2022-10-14T08:06:15.119Z,33.20
2022-10-14T08:08:45.765Z,34.43
2022-10-14T08:11:23.147Z,31.47
2022-10-14T08:13:55.053Z,34.00
2022-10-14T08:16:30.229Z,36.57
2022-10-14T08:19:02.472Z,38.87
2022-10-14T08:21:39.955Z,44.10
2022-10-14T08:24:08.894Z,33.67
2022-10-14T08:26:55.804Z,22.37
2022-10-14T08:29:24.775Z,20.50
2022-10-14T08:31:56.566Z,23.23
2022-10-14T08:34:28.246Z,21.60
2022-10-14T08:37:09.888Z,20.73
2022-10-14T08:39:38.913Z,21.03
2022-10-14T08:42:37.066Z,21.70
2022-10-14T08:45:11.825Z,21.37
2022-10-14T08:47:44.225Z,19.67
2022-10-14T08:50:35.465Z,20.53
2022-10-14T08:53:23.202Z,22.70
2022-10-14T08:56:02.197Z,22.10
2022-10-14T08:58:43.017Z,21.70
2022-10-14T09:01:21.939Z,20.93
2022-10-14T09:04:07.230Z,19.93
2022-10-14T09:06:38.187Z,19.53
2022-10-14T09:09:09.421Z,20.40
2022-10-14T09:11:57.125Z,20.20
2022-10-14T09:14:38.251Z,19.40
2022-10-14T09:20:12.848Z,20.80
2022-10-14T09:22:44.796Z,20.23
2022-10-14T09:25:20.657Z,21.57
2022-10-14T09:27:54.255Z,20.77
2022-10-14T09:30:28.208Z,20.77
2022-10-14T09:33:07.162Z,19.27
2022-10-14T09:35:42.585Z,20.57
2022-10-14T09:38:16.816Z,19.23
2022-10-14T09:40:52.772Z,20.53
2022-10-14T09:43:31.749Z,20.37
2022-10-14T09:46:13.238Z,19.30
2022-10-14T09:48:53.694Z,20.70
2022-10-14T09:51:34.219Z,21.00
2022-10-14T09:54:07.244Z,21.20
2022-10-14T09:56:40.882Z,21.40
2022-10-14T09:59:19.292Z,19.83
2022-10-14T10:01:59.530Z,20.10
2022-10-14T10:04:40.163Z,20.77
2022-10-14T10:07:26.927Z,19.23
2022-10-14T10:09:58.351Z,20.67
2022-10-14T10:12:35.733Z,19.87
2022-10-14T10:15:10.508Z,21.63
2022-10-14T10:17:43.685Z,20.80
2022-10-14T10:20:35.605Z,20.70
2022-10-14T10:23:29.232Z,21.63
2022-10-14T10:26:23.269Z,22.20
2022-10-14T10:28:51.887Z,22.40
2022-10-14T10:31:55.308Z,22.27
2022-10-14T10:35:01.185Z,20.93
2022-10-14T10:37:38.755Z,19.80
2022-10-14T10:40:28.191Z,19.13
2022-10-14T10:43:12.607Z,21.57
2022-10-14T10:45:53.041Z,19.73
2022-10-14T10:48:29.023Z,19.70
2022-10-14T10:51:11.657Z,20.40
2022-10-14T10:53:56.090Z,21.47
2022-10-14T10:56:35.879Z,20.50
2022-10-14T10:59:33.655Z,20.03
2022-10-14T11:02:44.416Z,20.47
2022-10-14T11:05:24.406Z,20.00
2022-10-14T11:08:20.635Z,19.50
2022-10-14T11:11:14.960Z,19.37
2022-10-14T11:13:48.023Z,20.33
2022-10-14T11:16:26.922Z,21.07
2022-10-14T11:19:03.699Z,22.37
2022-10-14T11:21:43.506Z,21.43
2022-10-14T11:27:10.098Z,20.03
2022-10-14T11:29:59.318Z,21.93
2022-10-14T11:32:30.999Z,20.90
2022-10-14T11:35:23.565Z,22.70
2022-10-14T11:38:12.911Z,21.90
2022-10-14T11:40:48.004Z,22.60
2022-10-14T11:43:26.104Z,24.60
2022-10-14T11:46:07.750Z,21.90
2022-10-14T11:49:04.570Z,23.37
2022-10-14T11:51:38.586Z,25.57
2022-10-14T11:54:20.625Z,24.40
2022-10-14T11:56:58.246Z,23.97
2022-10-14T11:59:51.138Z,25.53
2022-10-14T12:02:30.467Z,22.77
2022-10-14T12:05:11.671Z,24.63
2022-10-14T12:07:49.108Z,24.80
2022-10-14T12:10:32.260Z,24.83
2022-10-14T12:13:12.526Z,25.37
2022-10-14T12:15:48.620Z,25.30
2022-10-14T12:18:22.930Z,23.70
2022-10-14T12:20:58.371Z,24.40
2022-10-14T12:23:34.829Z,22.90
2022-10-14T12:26:26.959Z,23.40
2022-10-14T12:29:03.866Z,25.30
2022-10-14T12:31:36.798Z,25.43
2022-10-14T12:34:29.139Z,24.57
2022-10-14T12:36:59.192Z,24.30
2022-10-14T12:39:36.920Z,25.97
2022-10-14T12:42:14.204Z,25.90
2022-10-14T12:44:49.805Z,24.53
2022-10-14T12:47:21.987Z,28.30
2022-10-14T12:49:56.568Z,29.70
2022-10-14T12:52:28.062Z,27.30
2022-10-14T12:54:57.591Z,27.80
2022-10-14T12:57:32.425Z,31.20
2022-10-14T13:00:08.303Z,30.40
2022-10-14T13:02:39.608Z,29.40
2022-10-14T13:05:10.428Z,30.87
2022-10-14T13:07:47.445Z,29.43
2022-10-14T13:10:47.302Z,28.30
2022-10-14T13:13:51.753Z,27.50
2022-10-14T13:17:05.958Z,27.27
2022-10-14T13:19:47.921Z,27.30
2022-10-14T13:22:41.917Z,26.57
2022-10-14T13:25:21.790Z,28.17
2022-10-14T13:27:58.643Z,30.33
2022-10-14T13:30:37.100Z,30.83
2022-10-14T13:33:22.340Z,31.00
2022-10-14T13:36:03.130Z,32.70
2022-10-14T13:38:39.798Z,28.23
2022-10-14T13:41:16.774Z,30.83
2022-10-14T13:43:46.386Z,31.00
2022-10-14T13:46:24.324Z,29.23
2022-10-14T13:48:58.013Z,29.60
2022-10-14T13:51:44.357Z,30.43
2022-10-14T13:54:23.080Z,30.87
2022-10-14T13:57:38.268Z,29.40
2022-10-14T14:02:44.783Z,28.80
2022-10-14T14:05:24.587Z,26.57
2022-10-14T14:08:30.592Z,28.70
2022-10-14T14:11:15.707Z,29.53
2022-10-14T14:13:59.202Z,29.17
2022-10-14T14:16:32.598Z,28.30
2022-10-14T14:19:08.749Z,29.77
2022-10-14T14:21:42.141Z,29.60
2022-10-14T14:24:21.027Z,29.80
2022-10-14T14:26:55.408Z,27.97
2022-10-14T14:29:28.959Z,29.30
2022-10-14T14:32:08.284Z,28.87
2022-10-14T14:34:43.706Z,29.90
2022-10-14T14:37:55.274Z,31.07
2022-10-14T14:40:22.181Z,27.03
2022-10-14T14:42:55.594Z,28.50
2022-10-14T14:45:26.750Z,29.20
2022-10-14T14:47:58.844Z,31.40
2022-10-14T14:50:33.158Z,30.00
2022-10-14T14:53:06.287Z,30.63
2022-10-14T14:55:39.295Z,29.20
2022-10-14T14:58:25.282Z,30.20
2022-10-14T15:00:55.180Z,28.77
2022-10-14T15:03:26.119Z,30.57
2022-10-14T15:05:58.794Z,30.53
2022-10-14T15:08:30.593Z,28.60
2022-10-14T15:11:01.641Z,28.13
2022-10-14T15:13:44.639Z,31.83
2022-10-14T15:16:13.456Z,30.23
2022-10-14T15:18:43.742Z,29.53
2022-10-14T15:21:19.664Z,31.33
2022-10-14T15:24:03.449Z,27.63
2022-10-14T15:26:38.532Z,29.17
2022-10-14T15:29:14.795Z,31.07
2022-10-14T15:31:44.824Z,29.70
2022-10-14T15:34:19.214Z,29.10
2022-10-14T15:36:51.098Z,30.23
2022-10-14T15:39:22.091Z,30.63
2022-10-14T15:41:53.643Z,34.07
2022-10-14T15:44:22.256Z,32.10
2022-10-14T15:47:08.932Z,33.17
2022-10-14T15:49:44.132Z,31.00
2022-10-14T15:52:15.468Z,33.87
2022-10-14T15:54:45.934Z,31.40
2022-10-14T15:57:17.418Z,32.43
2022-10-14T15:59:49.235Z,31.10
2022-10-14T16:02:20.972Z,32.33
2022-10-14T16:05:18.345Z,32.17
2022-10-14T16:07:38.598Z,30.70
2022-10-14T16:10:08.341Z,32.07
2022-10-14T16:12:38.286Z,31.27
2022-10-14T16:15:17.307Z,34.37
2022-10-14T16:17:48.768Z,31.60
2022-10-14T16:20:20.427Z,33.93
2022-10-14T16:22:50.060Z,32.07
2022-10-14T16:25:23.302Z,34.67
2022-10-14T16:27:53.142Z,35.40
2022-10-14T16:30:22.274Z,33.80
2022-10-14T16:32:51.239Z,34.67
2022-10-14T16:35:19.710Z,36.90
2022-10-14T16:37:49.009Z,35.33
2022-10-14T16:40:17.849Z,36.03
2022-10-14T16:42:46.416Z,33.87
2022-10-14T16:45:16.649Z,34.13
2022-10-14T16:47:46.026Z,35.93
2022-10-14T16:50:15.076Z,36.17
2022-10-14T16:53:03.548Z,34.33
2022-10-14T16:55:34.800Z,35.23
2022-10-14T16:58:03.503Z,35.77
2022-10-14T17:00:33.963Z,36.30
2022-10-14T17:03:02.786Z,35.77
2022-10-14T17:05:31.503Z,35.73
2022-10-14T17:08:06.106Z,36.80
2022-10-14T17:10:35.119Z,36.57
2022-10-14T17:13:03.962Z,36.03
2022-10-14T17:15:39.702Z,36.00
2022-10-14T17:18:12.161Z,39.80
2022-10-14T17:20:41.500Z,41.23
2022-10-14T17:23:15.628Z,42.07
2022-10-14T17:25:48.886Z,42.27
2022-10-14T17:28:17.732Z,40.00
2022-10-14T17:30:48.834Z,41.13
2022-10-14T17:33:26.225Z,39.13
2022-10-14T17:35:58.565Z,39.70
2022-10-14T17:38:28.682Z,39.57
2022-10-14T17:41:04.004Z,36.03
2022-10-14T17:43:36.895Z,39.40
2022-10-14T17:48:43.426Z,41.00
2022-10-14T17:51:13.538Z,39.70
2022-10-14T17:53:42.668Z,41.90
2022-10-14T17:56:12.914Z,43.57
2022-10-14T17:58:42.396Z,40.27
2022-10-14T18:01:17.961Z,38.43
2022-10-14T18:03:48.528Z,41.10
2022-10-14T18:06:20.696Z,36.17
2022-10-14T18:08:53.058Z,37.50
2022-10-14T18:11:29.599Z,37.30
2022-10-14T18:14:02.572Z,38.93
2022-10-14T18:16:36.521Z,37.67
2022-10-14T18:19:07.124Z,39.20
2022-10-14T18:21:55.191Z,38.40
2022-10-14T18:24:34.111Z,37.80
2022-10-14T18:27:12.982Z,38.97
2022-10-14T18:29:42.962Z,39.17
2022-10-14T18:32:13.352Z,41.50
2022-10-14T18:34:42.865Z,36.83
2022-10-14T18:37:14.491Z,37.30
2022-10-14T18:39:45.315Z,41.50
2022-10-14T18:42:18.433Z,39.53
2022-10-14T18:44:53.714Z,38.80
2022-10-14T18:47:29.712Z,40.30
2022-10-14T18:50:01.046Z,39.30
2022-10-14T18:52:36.327Z,40.40
2022-10-14T18:55:08.797Z,40.03
2022-10-14T18:57:38.827Z,41.30
2022-10-14T19:00:13.560Z,41.20
2022-10-14T19:02:48.271Z,40.53
2022-10-14T19:05:22.265Z,40.70
2022-10-14T19:07:59.538Z,41.83
2022-10-14T19:10:32.883Z,41.10
2022-10-14T19:13:04.448Z,40.00
2022-10-14T19:15:45.191Z,41.87
2022-10-14T19:18:21.789Z,37.67
2022-10-14T19:20:57.001Z,40.33
2022-10-14T19:23:26.674Z,40.37
2022-10-14T19:26:01.730Z,39.77
2022-10-14T19:28:34.518Z,39.90
2022-10-14T19:31:09.376Z,41.00
2022-10-14T19:33:45.396Z,41.00
2022-10-14T19:36:17.241Z,39.30
2022-10-14T19:38:50.246Z,40.07
2022-10-14T19:41:46.825Z,39.17
2022-10-14T19:44:19.539Z,38.57
2022-10-14T19:46:54.475Z,41.50
2022-10-14T19:49:29.646Z,37.60
2022-10-14T19:52:04.966Z,38.30
2022-10-14T19:54:36.370Z,39.07
2022-10-14T19:57:09.003Z,36.53
2022-10-14T19:59:38.187Z,38.60
2022-10-14T20:02:08.405Z,36.83
2022-10-14T20:04:39.226Z,36.60
2022-10-14T20:07:09.638Z,36.30
2022-10-14T20:09:41.976Z,39.30
2022-10-14T20:12:12.706Z,39.13
2022-10-14T20:14:45.233Z,39.63
2022-10-14T20:17:15.442Z,39.03
2022-10-14T20:19:49.249Z,38.97
2022-10-14T20:22:18.803Z,39.90
2022-10-14T20:24:59.687Z,40.70
2022-10-14T20:27:29.660Z,38.60
2022-10-14T20:29:58.783Z,37.20
2022-10-14T20:32:27.852Z,40.50
2022-10-14T20:34:58.579Z,39.10
2022-10-14T20:37:32.349Z,38.90
2022-10-14T20:40:03.616Z,40.23
2022-10-14T20:42:34.928Z,38.53
2022-10-14T20:45:05.122Z,37.53
2022-10-14T20:47:33.732Z,38.80
2022-10-14T20:50:05.919Z,40.57
2022-10-14T20:52:37.662Z,41.53
2022-10-14T20:55:07.098Z,41.80
2022-10-14T20:57:39.989Z,38.90
2022-10-14T21:00:11.931Z,38.93
2022-10-14T21:05:20.839Z,40.30
2022-10-14T21:07:51.000Z,40.13
2022-10-14T21:10:19.592Z,41.70
2022-10-14T21:12:48.971Z,40.50
2022-10-14T21:15:17.811Z,38.33
2022-10-14T21:17:49.273Z,34.37
2022-10-14T21:20:19.572Z,40.13
2022-10-14T21:22:50.502Z,37.60
2022-10-14T21:25:19.251Z,35.37
2022-10-14T21:27:47.965Z,41.90
2022-10-14T21:30:18.911Z,36.63
2022-10-14T21:32:47.592Z,37.43
2022-10-14T21:35:16.380Z,37.70
2022-10-14T21:37:46.569Z,35.97
2022-10-14T21:40:18.400Z,34.50
2022-10-14T21:42:49.984Z,32.47
2022-10-14T21:45:18.584Z,32.40
2022-10-14T21:47:53.054Z,39.20
2022-10-14T21:50:24.869Z,40.30
2022-10-14T21:52:54.804Z,38.20
2022-10-14T21:55:28.212Z,39.23
2022-10-14T21:57:57.451Z,40.30
2022-10-14T22:00:29.083Z,37.97
2022-10-14T22:02:59.024Z,38.87
2022-10-14T22:05:27.785Z,40.97
2022-10-14T22:07:59.410Z,36.87
2022-10-14T22:10:45.147Z,37.70
2022-10-14T22:13:18.266Z,38.03
2022-10-14T22:15:51.837Z,37.30
2022-10-14T22:18:25.124Z,37.07
2022-10-14T22:21:02.260Z,40.87
2022-10-14T22:23:32.470Z,40.87
2022-10-14T22:26:01.934Z,40.63
2022-10-14T22:28:34.735Z,38.57
2022-10-14T22:31:07.294Z,37.77
2022-10-14T22:33:38.919Z,35.70
2022-10-14T22:36:09.793Z,36.60
2022-10-14T22:38:43.279Z,37.00
2022-10-14T22:41:12.850Z,38.50
2022-10-14T22:43:42.076Z,38.87
2022-10-14T22:46:13.631Z,37.77
2022-10-14T22:48:43.461Z,37.97
2022-10-14T22:51:17.240Z,41.30
2022-10-14T22:53:47.804Z,41.23
2022-10-14T22:56:22.599Z,40.93
2022-10-14T22:58:55.524Z,37.03
2022-10-14T23:01:24.276Z,38.20
2022-10-14T23:04:00.533Z,36.53
2022-10-14T23:06:30.026Z,37.13
2022-10-14T23:09:01.175Z,39.47
2022-10-14T23:11:31.129Z,38.67
2022-10-14T23:14:02.830Z,36.90
2022-10-14T23:16:36.787Z,38.37
2022-10-14T23:19:07.517Z,39.57
2022-10-14T23:21:39.194Z,40.83
2022-10-14T23:24:12.167Z,42.03
2022-10-14T23:26:40.867Z,39.70
2022-10-14T23:29:14.695Z,39.17
2022-10-14T23:31:48.275Z,39.00
2022-10-14T23:34:18.091Z,40.70
2022-10-14T23:36:46.819Z,40.40
2022-10-14T23:39:17.465Z,38.77
2022-10-14T23:41:46.253Z,41.37
2022-10-14T23:44:15.032Z,40.37
2022-10-14T23:46:43.953Z,41.00
2022-10-14T23:49:25.689Z,41.53
2022-10-14T23:51:57.145Z,39.07
2022-10-14T23:54:28.734Z,38.63
2022-10-14T23:56:57.422Z,37.53
2022-10-14T23:59:29.749Z,38.37
